This is the latest recevied weather packets stored in our database for station/object OK0EK-11. If no packets are shown the sender has not sent any weather packets the latest 10 day(s).
| Time | Temp. | Humidity | Pressure | Rain* | Wind** | Luminosity | Snow |
|---|---|---|---|---|---|---|---|
| 1787715795 | 12.78° C | 74% | 1018.7 hPa | - | - | - | - |
| 1787715195 | 12.22° C | 74% | 1018.7 hPa | - | - | - | - |
| 1787714595 | 12.78° C | 74% | 1018.7 hPa | - | - | - | - |
| 1787713995 | 12.78° C | 74% | 1018.6 hPa | - | - | - | - |
| 1787713396 | 12.78° C | 74% | 1018.6 hPa | - | - | - | - |
| 1787712796 | 12.78° C | 74% | 1018.6 hPa | - | - | - | - |
| 1787712196 | 12.78° C | 74% | 1018.7 hPa | - | - | - | - |
| 1787711596 | 12.22° C | 75% | 1018.8 hPa | - | - | - | - |
| 1787710997 | 12.22° C | 77% | 1018.7 hPa | - | - | - | - |
| 1787710397 | 12.22° C | 78% | 1018.7 hPa | - | - | - | - |
| 1787709797 | 11.67° C | 82% | 1018.6 hPa | - | - | - | - |
| 1787709198 | 11.11° C | 93% | 1018.6 hPa | - | - | - | - |
| 1787708598 | 10° C | 100% | 1018.5 hPa | - | - | - | - |
| 1787707998 | 8.89° C | 100% | 1018.5 hPa | - | - | - | - |
| 1787707398 | 8.89° C | 100% | 1018.5 hPa | - | - | - | - |
| 1787706798 | 8.89° C | 100% | 1018.5 hPa | - | - | - | - |
| 1787706199 | 8.89° C | 100% | 1018.5 hPa | - | - | - | - |
| 1787705599 | 8.89° C | 100% | 1018.4 hPa | - | - | - | - |
| 1787704999 | 8.89° C | 100% | 1018.4 hPa | - | - | - | - |
| 1787704399 | 9.44° C | 98% | 1018.2 hPa | - | - | - | - |
| 1787703800 | 10.56° C | 88% | 1018.1 hPa | - | - | - | - |
| 1787703200 | 12.22° C | 77% | 1018.3 hPa | - | - | - | - |
| 1787702600 | 12.22° C | 74% | 1018.4 hPa | - | - | - | - |
| 1787702000 | 12.22° C | 74% | 1018.4 hPa | - | - | - | - |
| 1787701401 | 12.22° C | 74% | 1018.3 hPa | - | - | - | - |
* Rain since midnight (hover to see other rain measurements)
** Current wind speed in m/s (hover to see current wind gust speed)